createdAt,value
2022-09-20T00:01:15.246Z,10.44
2022-09-20T00:03:43.931Z,10.45
2022-09-20T00:06:13.356Z,10.47
2022-09-20T00:08:40.554Z,10.49
2022-09-20T00:11:15.316Z,10.51
2022-09-20T00:13:43.646Z,10.55
2022-09-20T00:16:13.599Z,10.54
2022-09-20T00:18:40.127Z,10.53
2022-09-20T00:21:07.046Z,10.57
2022-09-20T00:23:33.912Z,10.57
2022-09-20T00:26:02.609Z,10.59
2022-09-20T00:28:30.167Z,10.56
2022-09-20T00:30:56.801Z,10.56
2022-09-20T00:33:45.181Z,10.55
2022-09-20T00:36:11.676Z,10.50
2022-09-20T00:38:38.108Z,10.45
2022-09-20T00:41:05.356Z,10.39
2022-09-20T00:43:47.052Z,10.35
2022-09-20T00:46:20.527Z,10.31
2022-09-20T00:48:48.648Z,10.31
2022-09-20T00:51:21.247Z,10.27
2022-09-20T00:53:50.789Z,10.25
2022-09-20T00:56:25.750Z,10.22
2022-09-20T00:59:19.595Z,10.20
2022-09-20T01:01:52.190Z,10.17
2022-09-20T01:04:21.711Z,10.15
2022-09-20T01:06:51.240Z,10.11
2022-09-20T01:09:17.596Z,10.08
2022-09-20T01:11:44.408Z,10.05
2022-09-20T01:14:15.603Z,10.02
2022-09-20T01:16:42.251Z,10.01
2022-09-20T01:19:31.363Z,10.02
2022-09-20T01:21:57.855Z,10.03
2022-09-20T01:24:31.414Z,10.03
2022-09-20T01:27:31.897Z,10.04
2022-09-20T01:30:28.300Z,10.03
2022-09-20T01:33:08.637Z,10.04
2022-09-20T01:35:36.507Z,10.02
2022-09-20T01:38:33.295Z,10.04
2022-09-20T01:41:08.788Z,10.04
2022-09-20T01:44:01.407Z,10.04
2022-09-20T01:46:32.959Z,10.04
2022-09-20T01:49:19.959Z,10.01
2022-09-20T01:52:19.679Z,10.01
2022-09-20T01:55:07.712Z,9.99
2022-09-20T01:58:09.370Z,9.98
2022-09-20T02:01:10.250Z,9.95
2022-09-20T02:03:55.597Z,9.93
2022-09-20T02:06:57.592Z,9.92
2022-09-20T02:09:49.240Z,9.92
2022-09-20T02:12:24.710Z,9.91
2022-09-20T02:15:13.070Z,9.91
2022-09-20T02:18:01.064Z,9.91
2022-09-20T02:20:54.377Z,9.92
2022-09-20T02:23:40.871Z,9.92
2022-09-20T02:26:28.680Z,9.93
2022-09-20T02:29:24.398Z,9.93
2022-09-20T02:31:58.301Z,9.94
2022-09-20T02:34:43.040Z,9.93
2022-09-20T02:37:09.352Z,9.91
2022-09-20T02:39:45.600Z,9.90
2022-09-20T02:42:24.978Z,9.88
2022-09-20T02:45:00.634Z,9.86
2022-09-20T02:47:37.131Z,9.83
2022-09-20T02:50:03.462Z,9.79
2022-09-20T02:52:44.647Z,9.76
2022-09-20T02:55:18.911Z,9.73
2022-09-20T02:57:59.794Z,9.69
2022-09-20T03:00:35.479Z,9.66
2022-09-20T03:03:16.749Z,9.63
2022-09-20T03:05:43.113Z,9.61
2022-09-20T03:08:34.775Z,9.57
2022-09-20T03:11:27.301Z,9.54
2022-09-20T03:14:23.048Z,9.52
2022-09-20T03:16:59.750Z,9.50
2022-09-20T03:19:29.119Z,9.48
2022-09-20T03:22:22.052Z,9.47
2022-09-20T03:25:19.133Z,9.45
2022-09-20T03:28:25.921Z,9.44
2022-09-20T03:31:08.806Z,9.42
2022-09-20T03:33:50.380Z,9.42
2022-09-20T03:36:33.347Z,9.40
2022-09-20T03:39:19.922Z,9.38
2022-09-20T03:42:11.040Z,9.35
2022-09-20T03:44:43.661Z,9.34
2022-09-20T03:47:26.938Z,9.33
2022-09-20T03:50:26.479Z,9.31
2022-09-20T03:53:14.556Z,9.29
2022-09-20T03:55:58.963Z,9.27
2022-09-20T03:58:43.249Z,9.26
2022-09-20T04:01:24.812Z,9.24
2022-09-20T04:04:06.677Z,9.22
2022-09-20T04:06:54.094Z,9.19
2022-09-20T04:09:59.186Z,9.18
2022-09-20T04:12:39.014Z,9.15
2022-09-20T04:15:22.199Z,9.13
2022-09-20T04:18:19.240Z,9.10
2022-09-20T04:21:07.686Z,9.07
2022-09-20T04:24:06.250Z,9.07
2022-09-20T04:26:41.071Z,9.05
2022-09-20T04:29:32.511Z,9.01
2022-09-20T04:32:19.364Z,8.99
2022-09-20T04:35:24.431Z,8.99
2022-09-20T04:37:52.402Z,8.98
2022-09-20T04:40:24.491Z,8.98
2022-09-20T04:43:03.934Z,8.98
2022-09-20T04:45:37.323Z,8.99
2022-09-20T04:48:29.445Z,8.99
2022-09-20T04:51:26.594Z,9.00
2022-09-20T04:54:07.971Z,9.02
2022-09-20T04:57:06.742Z,9.03
2022-09-20T04:59:55.204Z,9.03
2022-09-20T05:02:42.559Z,9.03
2022-09-20T05:05:30.806Z,9.06
2022-09-20T05:08:26.452Z,9.08
2022-09-20T05:11:31.367Z,9.09
2022-09-20T05:14:22.737Z,9.09
2022-09-20T05:17:10.237Z,9.09
2022-09-20T05:20:04.891Z,9.09
2022-09-20T05:22:53.657Z,9.08
2022-09-20T05:26:00.379Z,9.06
2022-09-20T05:28:49.495Z,9.01
2022-09-20T05:31:30.701Z,8.98
2022-09-20T05:34:11.785Z,8.99
2022-09-20T05:37:03.109Z,8.99
2022-09-20T05:39:42.997Z,8.98
2022-09-20T05:42:29.943Z,8.98
2022-09-20T05:45:07.463Z,9.01
2022-09-20T05:48:10.312Z,9.02
2022-09-20T05:51:03.499Z,9.02
2022-09-20T05:53:48.613Z,9.03
2022-09-20T05:56:24.059Z,9.02
2022-09-20T05:59:21.380Z,9.02
2022-09-20T06:02:07.049Z,9.02
2022-09-20T06:04:40.988Z,9.03
2022-09-20T06:07:24.585Z,9.06
2022-09-20T06:10:08.909Z,9.09
2022-09-20T06:13:09.163Z,9.13
2022-09-20T06:15:59.760Z,9.18
2022-09-20T06:18:34.405Z,9.24
2022-09-20T06:21:22.664Z,9.26
2022-09-20T06:23:49.372Z,9.32
2022-09-20T06:26:19.662Z,9.36
2022-09-20T06:28:54.204Z,9.41
2022-09-20T06:31:24.284Z,9.46
2022-09-20T06:33:58.788Z,9.51
2022-09-20T06:36:49.519Z,9.54
2022-09-20T06:40:04.679Z,9.59
2022-09-20T06:42:31.681Z,9.65
2022-09-20T06:44:58.416Z,9.71
2022-09-20T06:47:26.843Z,9.76
2022-09-20T06:49:53.322Z,9.80
2022-09-20T06:52:22.621Z,9.85
2022-09-20T06:54:53.800Z,9.94
2022-09-20T06:57:27.727Z,10.04
2022-09-20T06:59:54.150Z,10.16
2022-09-20T07:02:20.604Z,10.25
2022-09-20T07:04:47.056Z,10.34
2022-09-20T07:07:17.974Z,10.45
2022-09-20T07:09:44.339Z,10.62
2022-09-20T07:12:12.267Z,10.79
2022-09-20T07:14:39.027Z,10.91
2022-09-20T07:17:06.491Z,10.90
2022-09-20T07:19:33.836Z,10.93
2022-09-20T07:22:00.258Z,11.15
2022-09-20T07:24:26.647Z,11.48
2022-09-20T07:26:57.944Z,11.78
2022-09-20T07:29:25.604Z,12.05
2022-09-20T07:31:52.117Z,12.10
2022-09-20T07:34:20.343Z,12.00
2022-09-20T07:36:47.737Z,11.92
2022-09-20T07:39:14.556Z,11.89
2022-09-20T07:41:41.424Z,11.88
2022-09-20T07:44:24.766Z,11.90
2022-09-20T07:46:57.399Z,11.94
2022-09-20T07:49:25.978Z,11.93
2022-09-20T07:51:53.403Z,11.92
2022-09-20T07:54:20.434Z,11.85
2022-09-20T07:56:47.572Z,11.90
2022-09-20T07:59:15.117Z,11.92
2022-09-20T08:01:42.239Z,12.02
2022-09-20T08:04:09.627Z,12.14
2022-09-20T08:06:40.769Z,12.15
2022-09-20T08:09:11.182Z,12.13
2022-09-20T08:11:39.444Z,12.09
2022-09-20T08:14:07.459Z,12.14
2022-09-20T08:16:39.312Z,12.16
2022-09-20T08:19:05.811Z,12.21
2022-09-20T08:21:34.475Z,12.28
2022-09-20T08:24:01.468Z,12.33
2022-09-20T08:26:29.181Z,12.35
2022-09-20T08:28:57.743Z,12.39
2022-09-20T08:31:27.072Z,12.46
2022-09-20T08:33:54.623Z,12.55
2022-09-20T08:36:25.745Z,12.68
2022-09-20T08:41:46.005Z,13.07
2022-09-20T08:44:35.044Z,13.39
2022-09-20T08:47:22.082Z,13.47
2022-09-20T08:49:56.743Z,13.50
2022-09-20T08:52:37.016Z,13.60
2022-09-20T08:55:19.796Z,13.65
2022-09-20T08:57:51.867Z,13.71
2022-09-20T09:00:24.122Z,14.01
2022-09-20T09:02:54.298Z,14.27
2022-09-20T09:05:34.792Z,14.55
2022-09-20T09:08:06.519Z,15.04
2022-09-20T09:10:43.098Z,15.28
2022-09-20T09:13:19.368Z,15.15
2022-09-20T09:15:53.496Z,15.16
2022-09-20T09:18:19.907Z,15.28
2022-09-20T09:20:47.224Z,15.39
2022-09-20T09:23:25.561Z,15.42
2022-09-20T09:25:54.765Z,15.46
2022-09-20T09:28:25.154Z,15.36
2022-09-20T09:30:51.618Z,15.33
2022-09-20T09:33:30.167Z,15.34
2022-09-20T09:36:06.086Z,15.29
2022-09-20T09:38:38.285Z,15.31
2022-09-20T09:41:08.417Z,15.23
2022-09-20T09:43:37.193Z,15.13
2022-09-20T09:46:17.722Z,15.19
2022-09-20T09:48:49.714Z,15.24
2022-09-20T09:51:18.776Z,15.30
2022-09-20T09:53:47.755Z,15.40
2022-09-20T09:56:57.246Z,15.52
2022-09-20T10:00:19.682Z,15.47
2022-09-20T10:03:03.996Z,15.29
2022-09-20T10:05:35.407Z,15.11
2022-09-20T10:08:25.685Z,15.05
2022-09-20T10:11:14.049Z,14.98
2022-09-20T10:14:07.767Z,14.92
2022-09-20T10:16:57.384Z,14.86
2022-09-20T10:19:48.804Z,14.85
2022-09-20T10:22:21.575Z,14.78
2022-09-20T10:25:10.217Z,14.77
2022-09-20T10:28:11.277Z,14.91
2022-09-20T10:31:10.055Z,15.15
2022-09-20T10:33:53.004Z,15.13
2022-09-20T10:36:32.343Z,15.02
2022-09-20T10:39:09.604Z,15.12
2022-09-20T10:42:18.547Z,15.27
2022-09-20T10:45:44.110Z,15.59
2022-09-20T10:48:09.257Z,15.63
2022-09-20T10:50:54.616Z,15.76
2022-09-20T10:53:38.971Z,15.96
2022-09-20T10:56:20.062Z,16.00
2022-09-20T10:59:16.382Z,16.07
2022-09-20T11:02:16.316Z,16.14
2022-09-20T11:04:51.197Z,16.31
2022-09-20T11:07:26.308Z,16.30
2022-09-20T11:09:59.348Z,16.29
2022-09-20T11:12:42.454Z,16.36
2022-09-20T11:15:21.181Z,16.50
2022-09-20T11:18:08.006Z,16.57
2022-09-20T11:20:44.001Z,16.57
2022-09-20T11:23:17.689Z,16.51
2022-09-20T11:25:52.626Z,16.54
2022-09-20T11:28:33.640Z,16.54
2022-09-20T11:31:08.894Z,16.62
2022-09-20T11:33:43.010Z,16.67
2022-09-20T11:36:31.843Z,16.76
2022-09-20T11:39:11.071Z,16.79
2022-09-20T11:41:37.611Z,16.75
2022-09-20T11:44:12.437Z,16.78
2022-09-20T11:46:55.819Z,16.82
2022-09-20T11:49:58.928Z,16.76
2022-09-20T11:52:50.398Z,16.83
2022-09-20T11:55:42.290Z,16.90
2022-09-20T11:58:10.506Z,16.95
2022-09-20T12:00:41.331Z,16.99
2022-09-20T12:03:21.295Z,17.24
2022-09-20T12:05:56.225Z,17.24
2022-09-20T12:08:27.369Z,17.21
2022-09-20T12:11:04.123Z,17.18
2022-09-20T12:13:35.283Z,17.05
2022-09-20T12:16:09.101Z,17.07
2022-09-20T12:18:35.670Z,17.19
2022-09-20T12:21:16.021Z,17.13
2022-09-20T12:24:15.958Z,16.98
2022-09-20T12:26:44.037Z,16.90
2022-09-20T12:29:34.102Z,17.00
2022-09-20T12:32:03.707Z,17.08
2022-09-20T12:34:36.383Z,17.19
2022-09-20T12:37:04.591Z,17.15
2022-09-20T12:39:36.866Z,17.12
2022-09-20T12:42:28.110Z,17.16
2022-09-20T12:45:02.820Z,17.15
2022-09-20T12:47:33.365Z,17.23
2022-09-20T12:50:20.475Z,17.17
2022-09-20T12:52:52.635Z,17.17
2022-09-20T12:55:31.490Z,17.17
2022-09-20T12:58:03.501Z,17.15
2022-09-20T13:00:45.094Z,17.09
2022-09-20T13:03:14.649Z,17.08
2022-09-20T13:05:45.737Z,17.11
2022-09-20T13:08:13.060Z,17.17
2022-09-20T13:10:49.904Z,17.06
2022-09-20T13:13:44.424Z,16.98
2022-09-20T13:16:39.708Z,16.90
2022-09-20T13:19:20.052Z,16.71
2022-09-20T13:22:11.406Z,16.70
2022-09-20T13:24:41.662Z,16.66
2022-09-20T13:27:19.395Z,16.62
2022-09-20T13:29:46.126Z,16.64
2022-09-20T13:32:32.221Z,16.67
2022-09-20T13:35:14.122Z,16.61
2022-09-20T13:38:07.656Z,16.49
2022-09-20T13:40:38.286Z,16.44
2022-09-20T13:43:32.820Z,16.44
2022-09-20T13:46:06.564Z,16.45
2022-09-20T13:48:33.532Z,16.46
2022-09-20T13:51:00.056Z,16.57
2022-09-20T13:53:41.236Z,16.57
2022-09-20T13:56:19.586Z,16.54
2022-09-20T13:58:46.217Z,16.54
2022-09-20T14:01:27.201Z,16.45
2022-09-20T14:03:54.767Z,16.47
2022-09-20T14:06:29.590Z,16.48
2022-09-20T14:08:58.659Z,16.43
2022-09-20T14:11:33.644Z,16.47
2022-09-20T14:14:02.789Z,16.49
2022-09-20T14:16:35.833Z,16.48
2022-09-20T14:19:03.874Z,16.38
2022-09-20T14:21:35.125Z,16.40
2022-09-20T14:24:26.960Z,16.56
2022-09-20T14:27:04.012Z,16.73
2022-09-20T14:29:42.653Z,16.67
2022-09-20T14:32:24.862Z,16.62
2022-09-20T14:35:15.226Z,16.56
2022-09-20T14:37:45.148Z,16.38
2022-09-20T14:40:31.499Z,16.42
2022-09-20T14:43:01.553Z,16.45
2022-09-20T14:45:34.965Z,16.43
2022-09-20T14:48:21.962Z,16.41
2022-09-20T14:51:16.353Z,16.34
2022-09-20T14:53:44.560Z,16.38
2022-09-20T14:56:13.061Z,16.37
2022-09-20T14:59:06.756Z,16.31
2022-09-20T15:01:35.834Z,16.17
2022-09-20T15:04:08.365Z,16.11
2022-09-20T15:06:39.834Z,16.06
2022-09-20T15:09:06.496Z,16.11
2022-09-20T15:11:32.947Z,16.06
2022-09-20T15:13:59.644Z,16.08
2022-09-20T15:16:28.203Z,16.10
2022-09-20T15:18:54.843Z,16.04
2022-09-20T15:21:21.733Z,16.06
2022-09-20T15:23:48.372Z,16.11
2022-09-20T15:26:15.843Z,16.15
2022-09-20T15:28:42.276Z,16.22
2022-09-20T15:31:10.262Z,16.33
2022-09-20T15:33:36.747Z,16.37
2022-09-20T15:36:03.810Z,16.33
2022-09-20T15:38:30.489Z,16.27
2022-09-20T15:41:04.116Z,16.15
2022-09-20T15:43:30.975Z,16.10
2022-09-20T15:46:02.694Z,16.01
2022-09-20T15:48:29.942Z,15.89
2022-09-20T15:51:06.638Z,15.74
2022-09-20T15:53:35.607Z,15.70
2022-09-20T15:56:05.083Z,15.65
2022-09-20T15:58:36.208Z,15.61
2022-09-20T16:01:08.139Z,15.57
2022-09-20T16:03:35.517Z,15.50
2022-09-20T16:06:04.888Z,15.41
2022-09-20T16:08:35.472Z,15.27
2022-09-20T16:11:02.238Z,15.23
2022-09-20T16:13:29.211Z,15.15
2022-09-20T16:15:57.798Z,15.11
2022-09-20T16:18:43.409Z,15.06
2022-09-20T16:21:12.377Z,15.01
2022-09-20T16:23:40.028Z,14.98
2022-09-20T16:26:07.893Z,14.94
2022-09-20T16:28:34.368Z,14.89
2022-09-20T16:31:00.863Z,14.85
2022-09-20T16:33:27.351Z,14.84
2022-09-20T16:35:53.849Z,14.82
2022-09-20T16:38:20.319Z,14.82
2022-09-20T16:40:51.672Z,14.78
2022-09-20T16:43:27.888Z,14.72
2022-09-20T16:46:00.471Z,14.68
2022-09-20T16:48:31.427Z,14.65
2022-09-20T16:50:59.076Z,14.66
2022-09-20T16:53:26.592Z,14.62
2022-09-20T16:55:55.719Z,14.62
2022-09-20T16:58:29.934Z,14.57
2022-09-20T17:01:04.595Z,14.52
2022-09-20T17:03:31.505Z,14.44
2022-09-20T17:06:02.439Z,14.39
2022-09-20T17:08:28.920Z,14.32
2022-09-20T17:11:00.688Z,14.28
2022-09-20T17:13:29.947Z,14.24
2022-09-20T17:16:04.632Z,14.18
2022-09-20T17:18:31.466Z,14.07
2022-09-20T17:21:03.411Z,14.00
2022-09-20T17:23:32.147Z,13.92
2022-09-20T17:26:08.970Z,13.84
2022-09-20T17:28:40.733Z,13.78
2022-09-20T17:31:08.276Z,13.74
2022-09-20T17:33:36.200Z,13.63
2022-09-20T17:36:04.092Z,13.62
2022-09-20T17:38:33.493Z,13.57
2022-09-20T17:41:09.145Z,13.50
2022-09-20T17:43:36.799Z,13.43
2022-09-20T17:46:05.670Z,13.40
2022-09-20T17:48:34.212Z,13.31
2022-09-20T17:51:02.079Z,13.26
2022-09-20T17:53:31.340Z,13.22
2022-09-20T17:55:59.340Z,13.16
2022-09-20T17:58:26.398Z,13.05
2022-09-20T18:00:58.317Z,13.00
2022-09-20T18:03:24.992Z,12.97
2022-09-20T18:05:51.988Z,12.89
2022-09-20T18:08:18.896Z,12.83
2022-09-20T18:10:56.680Z,12.74
2022-09-20T18:13:23.266Z,12.68
2022-09-20T18:15:49.748Z,12.62
2022-09-20T18:18:16.157Z,12.61
2022-09-20T18:20:42.596Z,12.57
2022-09-20T18:23:08.999Z,12.52
2022-09-20T18:25:55.440Z,12.47
2022-09-20T18:28:21.886Z,12.41
2022-09-20T18:30:48.988Z,12.37
2022-09-20T18:33:18.411Z,12.32
2022-09-20T18:35:44.770Z,12.30
2022-09-20T18:38:12.000Z,12.24
2022-09-20T18:40:38.498Z,12.13
2022-09-20T18:43:07.705Z,12.10
2022-09-20T18:45:34.692Z,12.09
2022-09-20T18:48:01.263Z,12.06
2022-09-20T18:50:27.650Z,12.03
2022-09-20T18:52:54.033Z,11.99
2022-09-20T18:55:22.495Z,11.96
2022-09-20T18:57:49.142Z,11.92
2022-09-20T19:00:15.989Z,11.87
2022-09-20T19:02:55.222Z,11.82
2022-09-20T19:06:01.277Z,11.79
2022-09-20T19:08:34.739Z,11.71
2022-09-20T19:11:07.619Z,11.66
2022-09-20T19:13:44.921Z,11.62
2022-09-20T19:16:22.426Z,11.61
2022-09-20T19:19:16.208Z,11.61
2022-09-20T19:21:55.625Z,11.60
2022-09-20T19:24:42.319Z,11.59
2022-09-20T19:27:12.815Z,11.58
2022-09-20T19:29:39.962Z,11.58
2022-09-20T19:32:11.188Z,11.58
2022-09-20T19:34:42.834Z,11.58
2022-09-20T19:37:18.664Z,11.56
2022-09-20T19:40:14.535Z,11.51
2022-09-20T19:43:05.545Z,11.51
2022-09-20T19:46:00.150Z,11.50
2022-09-20T19:48:38.936Z,11.49
2022-09-20T19:51:10.107Z,11.48
2022-09-20T19:53:37.404Z,11.48
2022-09-20T19:56:24.902Z,11.48
2022-09-20T19:58:55.996Z,11.48
2022-09-20T20:01:24.559Z,11.48
2022-09-20T20:03:55.111Z,11.47
2022-09-20T20:06:32.352Z,11.47
2022-09-20T20:09:26.067Z,11.48
2022-09-20T20:12:04.476Z,11.46
2022-09-20T20:14:43.037Z,11.46
2022-09-20T20:17:30.672Z,11.46
2022-09-20T20:20:33.711Z,11.44
2022-09-20T20:23:00.856Z,11.42
2022-09-20T20:25:37.929Z,11.43
2022-09-20T20:28:04.515Z,11.42
2022-09-20T20:30:31.438Z,11.41
2022-09-20T20:33:00.787Z,11.41
2022-09-20T20:35:27.313Z,11.40
2022-09-20T20:37:53.747Z,11.39
2022-09-20T20:40:20.288Z,11.37
2022-09-20T20:42:47.768Z,11.32
2022-09-20T20:45:14.376Z,11.31
2022-09-20T20:47:42.488Z,11.30
2022-09-20T20:50:11.844Z,11.30
2022-09-20T20:52:38.423Z,11.28
2022-09-20T20:55:06.189Z,11.26
2022-09-20T20:57:34.077Z,11.21
2022-09-20T21:00:00.606Z,11.21
2022-09-20T21:02:27.071Z,11.20
2022-09-20T21:04:53.501Z,11.21
2022-09-20T21:07:19.913Z,11.21
2022-09-20T21:09:46.779Z,11.20
2022-09-20T21:12:14.473Z,11.21
2022-09-20T21:14:40.957Z,11.21
2022-09-20T21:17:07.779Z,11.21
2022-09-20T21:19:34.204Z,11.22
2022-09-20T21:22:00.601Z,11.22
2022-09-20T21:24:26.996Z,11.21
2022-09-20T21:26:53.487Z,11.20
2022-09-20T21:29:20.581Z,11.16
2022-09-20T21:31:47.344Z,11.13
2022-09-20T21:34:15.306Z,11.12
2022-09-20T21:36:42.615Z,11.12
2022-09-20T21:39:09.176Z,11.14
2022-09-20T21:41:37.990Z,11.14
2022-09-20T21:44:06.252Z,11.15
2022-09-20T21:46:39.899Z,11.13
2022-09-20T21:49:11.048Z,11.12
2022-09-20T21:51:39.182Z,11.10
2022-09-20T21:54:05.698Z,11.09
2022-09-20T21:56:34.735Z,11.09
2022-09-20T21:59:03.695Z,11.10
2022-09-20T22:01:35.192Z,11.08
2022-09-20T22:04:07.597Z,11.07
2022-09-20T22:06:39.418Z,11.07
2022-09-20T22:09:07.592Z,11.06
2022-09-20T22:11:40.762Z,11.03
2022-09-20T22:14:08.176Z,11.02
2022-09-20T22:16:37.769Z,11.02
2022-09-20T22:19:05.478Z,11.00
2022-09-20T22:21:37.448Z,10.99
2022-09-20T22:24:06.894Z,10.97
2022-09-20T22:26:36.494Z,10.94
2022-09-20T22:29:03.876Z,10.92
2022-09-20T22:31:33.152Z,10.92
2022-09-20T22:34:02.292Z,10.92
2022-09-20T22:36:32.142Z,10.91
2022-09-20T22:38:58.712Z,10.89
2022-09-20T22:41:25.642Z,10.87
2022-09-20T22:43:52.154Z,10.85
2022-09-20T22:46:21.075Z,10.83
2022-09-20T22:48:48.245Z,10.79
2022-09-20T22:51:20.577Z,10.79
2022-09-20T22:53:48.277Z,10.78
2022-09-20T22:56:17.850Z,10.75
2022-09-20T22:58:47.339Z,10.72
2022-09-20T23:01:38.094Z,10.68
2022-09-20T23:04:10.086Z,10.62
2022-09-20T23:06:38.580Z,10.59
2022-09-20T23:09:08.099Z,10.56
2022-09-20T23:11:36.128Z,10.53
2022-09-20T23:14:05.050Z,10.48
2022-09-20T23:16:34.445Z,10.44
2022-09-20T23:19:02.147Z,10.42
2022-09-20T23:21:29.010Z,10.38
2022-09-20T23:23:58.315Z,10.33
2022-09-20T23:26:26.113Z,10.28
2022-09-20T23:28:55.365Z,10.24
2022-09-20T23:31:22.734Z,10.18
2022-09-20T23:34:00.383Z,10.14
2022-09-20T23:36:29.480Z,10.08
2022-09-20T23:38:58.820Z,10.01
2022-09-20T23:41:27.121Z,9.95
2022-09-20T23:43:54.111Z,9.87
2022-09-20T23:46:22.404Z,9.82
2022-09-20T23:48:50.374Z,9.78
2022-09-20T23:51:19.720Z,9.72
2022-09-20T23:53:46.501Z,9.67
2022-09-20T23:56:13.614Z,9.65
2022-09-20T23:58:42.126Z,9.61
